Hovedside
METAR-TAF:

METAR-TAF

Lufthavner :

Ronneby lufthavn

Ronneby, Sverige

breddegrad: 56-16N, lengdegrad: 015-17E, høyde over havet: 58 m

Gjeldene værobservasjon

Denne rapporten ble laget for 17 minutter siden, klokken 17:20 UTC
Vind 8 kt fra Øst-nordøst
Temperatur 18°C
Luftfuktighet 83%
Trykk 1026 hPa
Sikt 10 km eller mer
Spredte skyer i en høyde av 1600 ft
Spredte skyer i en høyde av 5800 ft, Tårnskyer (cumulus).

METAR: ESDF 261720Z 07008KT 9999 SCT016 SCT058TCU 18/15 Q1026

Tid: 19:37 (17:37 UTC)


TAF: fraværende

Værobservasjoner og værvarsel for over 4000 flyplasser (METAR- og TAF-rapporter).

Tilgjengelige stasjoner er representert av de røde og gule prikkene på kartet.

Hold musepekeren over prikken for å se navnet på stasjonen.

Klikk så for å se værobservasjoner og -varsler.

For å forandre kartet kan du klikke på den grønne knappen med svart kryss for å zoome inn, på den grønne knappen med strek for å zoome ut, eller på de grønne pilene for å se tilstøtende kart.


METAR-TAF: